X  CloseMetar Aviation Weather Data     YMAV Avalon Airport

Temperature

4°C Temperature

2°C Dewpoint

87% Humidity



Wind

11 KM/H

 7 MPH

 3 M/S

 6 KTS



50°
North East
Current Conditions

Clear Clear
Pressure 1014.92 (hPa) - 29.97 (in)
Visibility 6.2 (mi) - 10 (km)
Airport
Airport-code YMAV

Location Avalon Airport 14 (km)

Metar:
YMAV 161830Z AUTO 05006KT 9999 // NCD 04/02 Q1015 RF00.0/000.0

Time: 17-09-2021 04:30